createdAt,value
2022-10-04T00:01:55.140Z,11.40
2022-10-04T00:04:28.966Z,11.38
2022-10-04T00:07:02.674Z,11.33
2022-10-04T00:09:37.810Z,11.27
2022-10-04T00:12:08.472Z,11.20
2022-10-04T00:14:44.225Z,11.20
2022-10-04T00:17:19.595Z,11.12
2022-10-04T00:19:50.862Z,11.13
2022-10-04T00:22:28.780Z,11.10
2022-10-04T00:25:22.417Z,11.12
2022-10-04T00:28:19.191Z,11.10
2022-10-04T00:31:18.756Z,11.05
2022-10-04T00:33:50.923Z,11.07
2022-10-04T00:36:45.943Z,11.08
2022-10-04T00:39:37.571Z,11.06
2022-10-04T00:42:23.542Z,11.08
2022-10-04T00:44:59.484Z,11.04
2022-10-04T00:47:33.940Z,11.07
2022-10-04T00:50:12.472Z,11.02
2022-10-04T00:52:46.639Z,11.02
2022-10-04T00:55:27.330Z,11.05
2022-10-04T00:58:00.522Z,11.04
2022-10-04T01:00:33.361Z,11.03
2022-10-04T01:03:07.892Z,11.02
2022-10-04T01:05:40.871Z,11.03
2022-10-04T01:08:14.300Z,11.01
2022-10-04T01:10:48.945Z,10.99
2022-10-04T01:13:21.202Z,11.00
2022-10-04T01:15:55.373Z,11.04
2022-10-04T01:18:34.830Z,11.05
2022-10-04T01:21:09.102Z,11.05
2022-10-04T01:23:50.589Z,11.01
2022-10-04T01:26:41.361Z,11.05
2022-10-04T01:29:19.375Z,11.06
2022-10-04T01:31:51.444Z,11.07
2022-10-04T01:34:22.363Z,11.08
2022-10-04T01:36:54.330Z,11.07
2022-10-04T01:39:27.115Z,11.02
2022-10-04T01:42:00.189Z,10.98
2022-10-04T01:44:33.164Z,11.00
2022-10-04T01:47:07.400Z,10.97
2022-10-04T01:49:40.095Z,11.00
2022-10-04T01:52:16.549Z,10.98
2022-10-04T01:54:51.208Z,10.97
2022-10-04T01:57:24.328Z,10.97
2022-10-04T02:00:01.481Z,10.95
2022-10-04T02:02:38.070Z,10.95
2022-10-04T02:05:12.174Z,10.94
2022-10-04T02:07:43.626Z,10.93
2022-10-04T02:10:18.160Z,10.89
2022-10-04T02:12:50.934Z,10.89
2022-10-04T02:15:22.521Z,10.91
2022-10-04T02:17:52.435Z,10.89
2022-10-04T02:20:24.456Z,10.91
2022-10-04T02:22:59.237Z,10.90
2022-10-04T02:25:30.572Z,10.87
2022-10-04T02:28:00.073Z,10.85
2022-10-04T02:30:29.717Z,10.87
2022-10-04T02:32:59.782Z,10.89
2022-10-04T02:35:31.067Z,10.83
2022-10-04T02:38:11.788Z,10.80
2022-10-04T02:40:49.307Z,10.77
2022-10-04T02:43:23.473Z,10.75
2022-10-04T02:45:57.035Z,10.70
2022-10-04T02:48:35.229Z,10.69
2022-10-04T02:51:17.233Z,10.69
2022-10-04T02:53:53.957Z,10.71
2022-10-04T02:56:25.524Z,10.74
2022-10-04T02:58:56.180Z,10.74
2022-10-04T03:01:30.280Z,10.74
2022-10-04T03:04:00.595Z,10.74
2022-10-04T03:06:33.497Z,10.72
2022-10-04T03:09:06.519Z,10.73
2022-10-04T03:11:40.530Z,10.72
2022-10-04T03:14:14.977Z,10.70
2022-10-04T03:16:46.591Z,10.64
2022-10-04T03:19:19.280Z,10.53
2022-10-04T03:21:50.986Z,10.55
2022-10-04T03:24:23.934Z,10.62
2022-10-04T03:26:58.040Z,10.59
2022-10-04T03:29:30.284Z,10.52
2022-10-04T03:32:02.059Z,10.54
2022-10-04T03:34:36.121Z,10.47
2022-10-04T03:37:09.439Z,10.53
2022-10-04T03:39:42.494Z,10.51
2022-10-04T03:42:16.809Z,10.48
2022-10-04T03:44:47.650Z,10.44
2022-10-04T03:47:21.721Z,10.45
2022-10-04T03:49:52.866Z,10.41
2022-10-04T03:52:25.777Z,10.41
2022-10-04T03:55:00.282Z,10.44
2022-10-04T03:57:32.332Z,10.41
2022-10-04T04:00:02.920Z,10.46
2022-10-04T04:02:46.955Z,10.46
2022-10-04T04:05:21.379Z,10.47
2022-10-04T04:08:01.265Z,10.47
2022-10-04T04:10:32.949Z,10.46
2022-10-04T04:13:13.034Z,10.43
2022-10-04T04:15:45.587Z,10.46
2022-10-04T04:18:20.164Z,10.49
2022-10-04T04:20:51.554Z,10.48
2022-10-04T04:23:27.417Z,10.45
2022-10-04T04:26:00.854Z,10.48
2022-10-04T04:28:35.469Z,10.49
2022-10-04T04:31:09.037Z,10.43
2022-10-04T04:33:46.322Z,10.40
2022-10-04T04:36:18.548Z,10.40
2022-10-04T04:39:04.505Z,10.42
2022-10-04T04:41:36.084Z,10.45
2022-10-04T04:44:17.751Z,10.43
2022-10-04T04:46:47.627Z,10.45
2022-10-04T04:49:19.563Z,10.46
2022-10-04T04:51:51.702Z,10.48
2022-10-04T04:54:24.926Z,10.45
2022-10-04T04:56:56.226Z,10.47
2022-10-04T04:59:28.335Z,10.46
2022-10-04T05:01:57.574Z,10.43
2022-10-04T05:04:27.478Z,10.39
2022-10-04T05:07:06.337Z,10.39
2022-10-04T05:09:37.271Z,10.41
2022-10-04T05:12:11.858Z,10.43
2022-10-04T05:14:47.369Z,10.46
2022-10-04T05:17:22.067Z,10.42
2022-10-04T05:19:52.567Z,10.47
2022-10-04T05:22:23.874Z,10.47
2022-10-04T05:24:57.991Z,10.44
2022-10-04T05:27:31.767Z,10.44
2022-10-04T05:30:14.313Z,10.48
2022-10-04T05:32:55.694Z,10.54
2022-10-04T05:35:27.500Z,10.56
2022-10-04T05:38:09.173Z,10.62
2022-10-04T05:40:46.696Z,10.66
2022-10-04T05:43:36.548Z,10.66
2022-10-04T05:46:24.890Z,10.72
2022-10-04T05:49:00.465Z,10.78
2022-10-04T05:51:31.622Z,10.79
2022-10-04T05:54:04.080Z,10.82
2022-10-04T05:56:59.062Z,10.86
2022-10-04T05:59:45.810Z,10.87
2022-10-04T06:02:29.344Z,10.91
2022-10-04T06:05:10.899Z,10.98
2022-10-04T06:07:43.919Z,11.02
2022-10-04T06:10:39.805Z,11.08
2022-10-04T06:13:17.400Z,11.12
2022-10-04T06:15:59.287Z,11.17
2022-10-04T06:18:45.759Z,11.23
2022-10-04T06:21:23.357Z,11.25
2022-10-04T06:23:58.946Z,11.29
2022-10-04T06:26:34.007Z,11.37
2022-10-04T06:29:07.611Z,11.36
2022-10-04T06:32:05.439Z,11.45
2022-10-04T06:35:11.461Z,11.50
2022-10-04T06:38:09.167Z,11.58
2022-10-04T06:40:52.911Z,11.64
2022-10-04T06:43:36.958Z,11.73
2022-10-04T06:46:15.439Z,11.74
2022-10-04T06:49:19.467Z,11.77
2022-10-04T06:52:17.733Z,11.82
2022-10-04T06:55:14.964Z,11.88
2022-10-04T06:58:08.647Z,11.91
2022-10-04T07:00:42.809Z,11.99
2022-10-04T07:03:17.287Z,12.09
2022-10-04T07:05:51.721Z,12.15
2022-10-04T07:08:33.907Z,12.22
2022-10-04T07:11:12.229Z,12.25
2022-10-04T07:13:49.173Z,12.27
2022-10-04T07:16:35.676Z,12.33
2022-10-04T07:19:29.204Z,12.38
2022-10-04T07:22:05.259Z,12.43
2022-10-04T07:24:58.246Z,12.50
2022-10-04T07:27:33.264Z,12.54
2022-10-04T07:30:06.939Z,12.55
2022-10-04T07:32:38.913Z,12.61
2022-10-04T07:35:21.578Z,12.66
2022-10-04T07:37:58.887Z,12.71
2022-10-04T07:40:33.266Z,12.77
2022-10-04T07:43:08.222Z,12.80
2022-10-04T07:45:41.074Z,12.83
2022-10-04T07:48:16.377Z,12.81
2022-10-04T07:50:53.762Z,12.84
2022-10-04T07:53:25.143Z,12.87
2022-10-04T07:56:02.801Z,12.89
2022-10-04T07:58:45.919Z,12.85
2022-10-04T08:01:27.090Z,12.90
2022-10-04T08:04:15.729Z,12.90
2022-10-04T08:06:57.304Z,12.96
2022-10-04T08:09:45.549Z,13.01
2022-10-04T08:12:24.459Z,13.11
2022-10-04T08:15:04.597Z,13.18
2022-10-04T08:17:46.529Z,13.26
2022-10-04T08:20:37.064Z,13.35
2022-10-04T08:23:19.671Z,13.39
2022-10-04T08:25:57.535Z,13.39
2022-10-04T08:28:57.198Z,13.47
2022-10-04T08:31:39.520Z,13.45
2022-10-04T08:34:28.292Z,13.54
2022-10-04T08:37:06.482Z,13.66
2022-10-04T08:39:52.078Z,13.74
2022-10-04T08:42:48.486Z,13.82
2022-10-04T08:45:52.939Z,13.79
2022-10-04T08:49:01.100Z,13.81
2022-10-04T08:52:03.054Z,13.75
2022-10-04T08:55:00.634Z,13.69
2022-10-04T08:58:08.477Z,13.72
2022-10-04T09:01:05.996Z,13.74
2022-10-04T09:04:35.362Z,13.79
2022-10-04T09:07:35.782Z,13.90
2022-10-04T09:10:31.100Z,14.02
2022-10-04T09:13:22.318Z,14.14
2022-10-04T09:16:00.371Z,14.21
2022-10-04T09:18:51.128Z,14.30
2022-10-04T09:21:37.842Z,14.40
2022-10-04T09:24:37.254Z,14.45
2022-10-04T09:27:50.103Z,14.45
2022-10-04T09:30:19.821Z,14.53
2022-10-04T09:33:17.844Z,14.66
2022-10-04T09:36:21.473Z,14.73
2022-10-04T09:39:29.079Z,14.86
2022-10-04T09:42:18.924Z,14.82
2022-10-04T09:45:27.608Z,14.89
2022-10-04T09:48:28.494Z,14.82
2022-10-04T09:51:40.204Z,14.89
2022-10-04T09:54:42.352Z,14.93
2022-10-04T09:57:29.605Z,15.02
2022-10-04T10:00:22.178Z,15.15
2022-10-04T10:03:37.211Z,15.28
2022-10-04T10:06:30.660Z,15.34
2022-10-04T10:09:46.633Z,15.40
2022-10-04T10:12:53.358Z,15.45
2022-10-04T10:15:34.383Z,15.44
2022-10-04T10:18:18.499Z,15.50
2022-10-04T10:21:12.828Z,15.66
2022-10-04T10:24:03.389Z,15.82
2022-10-04T10:26:56.388Z,15.96
2022-10-04T10:29:52.399Z,16.09
2022-10-04T10:32:45.803Z,16.24
2022-10-04T10:35:49.100Z,16.37
2022-10-04T10:38:43.613Z,16.53
2022-10-04T10:41:32.270Z,16.65
2022-10-04T10:44:31.158Z,16.85
2022-10-04T10:47:31.629Z,17.08
2022-10-04T10:50:21.784Z,17.24
2022-10-04T10:53:26.034Z,17.53
2022-10-04T10:56:29.307Z,18.10
2022-10-04T10:59:33.452Z,19.43
2022-10-04T11:02:49.366Z,20.81
2022-10-04T11:06:04.505Z,21.09
2022-10-04T11:09:08.017Z,20.83
2022-10-04T11:12:06.245Z,20.78
2022-10-04T11:14:56.637Z,20.70
2022-10-04T11:17:51.702Z,20.34
2022-10-04T11:20:51.099Z,20.19
2022-10-04T11:23:58.450Z,19.85
2022-10-04T11:26:58.429Z,19.80
2022-10-04T11:29:49.259Z,19.72
2022-10-04T11:33:01.164Z,19.56
2022-10-04T11:36:08.241Z,19.69
2022-10-04T11:38:57.320Z,19.38
2022-10-04T11:41:42.621Z,19.44
2022-10-04T11:44:44.302Z,19.51
2022-10-04T11:47:40.567Z,19.50
2022-10-04T11:50:26.955Z,19.49
2022-10-04T11:53:19.957Z,19.35
2022-10-04T11:56:12.777Z,19.38
2022-10-04T11:58:54.639Z,19.42
2022-10-04T12:02:02.877Z,19.56
2022-10-04T12:05:18.920Z,19.63
2022-10-04T12:08:02.047Z,19.67
2022-10-04T12:10:35.910Z,19.85
2022-10-04T12:13:41.895Z,19.95
2022-10-04T12:16:38.791Z,20.09
2022-10-04T12:19:40.826Z,20.24
2022-10-04T12:22:34.197Z,20.28
2022-10-04T12:25:49.427Z,20.24
2022-10-04T12:29:05.881Z,20.26
2022-10-04T12:31:38.324Z,20.14
2022-10-04T12:34:16.783Z,19.97
2022-10-04T12:37:10.609Z,19.92
2022-10-04T12:39:59.399Z,19.91
2022-10-04T12:42:41.140Z,19.86
2022-10-04T12:45:41.848Z,19.99
2022-10-04T12:48:23.236Z,20.09
2022-10-04T12:51:01.297Z,20.04
2022-10-04T12:53:40.455Z,20.06
2022-10-04T12:56:37.240Z,20.03
2022-10-04T12:59:32.228Z,20.08
2022-10-04T13:02:21.221Z,20.03
2022-10-04T13:04:54.619Z,19.92
2022-10-04T13:07:45.551Z,19.78
2022-10-04T13:10:44.445Z,19.50
2022-10-04T13:13:45.908Z,19.06
2022-10-04T13:19:21.314Z,19.02
2022-10-04T13:22:43.979Z,18.90
2022-10-04T13:25:25.420Z,18.83
2022-10-04T13:28:03.449Z,18.88
2022-10-04T13:30:46.417Z,18.61
2022-10-04T13:33:24.832Z,18.46
2022-10-04T13:36:03.448Z,18.51
2022-10-04T13:39:07.399Z,18.51
2022-10-04T13:41:59.791Z,18.55
2022-10-04T13:44:46.091Z,18.66
2022-10-04T13:47:42.301Z,18.78
2022-10-04T13:50:36.449Z,18.92
2022-10-04T13:53:39.928Z,18.67
2022-10-04T13:56:40.513Z,18.35
2022-10-04T13:59:20.165Z,18.23
2022-10-04T14:02:23.445Z,18.33
2022-10-04T14:05:22.691Z,18.37
2022-10-04T14:08:11.230Z,18.37
2022-10-04T14:11:02.579Z,18.35
2022-10-04T14:13:57.452Z,18.16
2022-10-04T14:16:59.029Z,18.34
2022-10-04T14:20:15.874Z,18.47
2022-10-04T14:23:03.111Z,18.53
2022-10-04T14:26:15.770Z,18.59
2022-10-04T14:29:15.598Z,18.47
2022-10-04T14:32:10.222Z,18.48
2022-10-04T14:34:58.298Z,18.34
2022-10-04T14:38:01.297Z,18.35
2022-10-04T14:40:46.429Z,18.29
2022-10-04T14:43:47.268Z,18.13
2022-10-04T14:46:25.017Z,18.23
2022-10-04T14:49:08.050Z,18.10
2022-10-04T14:51:57.139Z,18.08
2022-10-04T14:54:43.377Z,18.09
2022-10-04T14:57:22.830Z,17.92
2022-10-04T15:00:19.959Z,17.94
2022-10-04T15:03:20.882Z,17.84
2022-10-04T15:06:22.140Z,17.72
2022-10-04T15:09:23.145Z,17.59
2022-10-04T15:12:25.327Z,17.24
2022-10-04T15:15:27.431Z,17.10
2022-10-04T15:18:04.127Z,17.01
2022-10-04T15:20:39.235Z,16.87
2022-10-04T15:23:17.082Z,16.77
2022-10-04T15:25:48.394Z,16.54
2022-10-04T15:28:43.741Z,16.54
2022-10-04T15:31:24.668Z,16.48
2022-10-04T15:34:05.379Z,16.45
2022-10-04T15:37:04.334Z,16.32
2022-10-04T15:40:00.345Z,16.13
2022-10-04T15:42:34.214Z,16.05
2022-10-04T15:46:00.760Z,15.90
2022-10-04T15:49:06.482Z,15.89
2022-10-04T15:51:50.037Z,15.84
2022-10-04T15:54:56.632Z,15.81
2022-10-04T15:57:33.814Z,15.71
2022-10-04T16:00:08.409Z,15.62
2022-10-04T16:02:57.386Z,15.50
2022-10-04T16:05:36.578Z,15.33
2022-10-04T16:08:29.766Z,15.31
2022-10-04T16:11:15.747Z,15.24
2022-10-04T16:14:01.872Z,15.18
2022-10-04T16:16:56.713Z,15.07
2022-10-04T16:19:41.607Z,15.05
2022-10-04T16:22:16.251Z,14.97
2022-10-04T16:24:51.459Z,14.87
2022-10-04T16:28:08.161Z,14.75
2022-10-04T16:30:44.121Z,14.66
2022-10-04T16:33:33.536Z,14.60
2022-10-04T16:36:16.468Z,14.50
2022-10-04T16:39:10.469Z,14.40
2022-10-04T16:41:44.519Z,14.36
2022-10-04T16:44:36.510Z,14.30
2022-10-04T16:47:21.296Z,14.19
2022-10-04T16:49:55.042Z,14.17
2022-10-04T16:52:34.631Z,14.15
2022-10-04T16:55:26.017Z,14.14
2022-10-04T16:58:33.701Z,14.00
2022-10-04T17:01:38.483Z,13.92
2022-10-04T17:04:40.662Z,13.81
2022-10-04T17:07:23.441Z,13.73
2022-10-04T17:10:03.067Z,13.63
2022-10-04T17:12:45.506Z,13.63
2022-10-04T17:15:43.613Z,13.63
2022-10-04T17:18:20.665Z,13.60
2022-10-04T17:20:58.047Z,13.53
2022-10-04T17:23:45.496Z,13.47
2022-10-04T17:26:31.029Z,13.38
2022-10-04T17:29:21.778Z,13.26
2022-10-04T17:31:58.326Z,13.18
2022-10-04T17:34:43.319Z,13.07
2022-10-04T17:37:27.415Z,12.94
2022-10-04T17:40:19.298Z,12.86
2022-10-04T17:42:59.925Z,12.76
2022-10-04T17:45:52.764Z,12.64
2022-10-04T17:48:43.085Z,12.55
2022-10-04T17:51:47.712Z,12.48
2022-10-04T17:54:39.013Z,12.42
2022-10-04T17:57:27.279Z,12.33
2022-10-04T18:00:08.305Z,12.29
2022-10-04T18:03:10.035Z,12.27
2022-10-04T18:05:52.534Z,12.22
2022-10-04T18:08:29.469Z,12.15
2022-10-04T18:11:03.656Z,12.03
2022-10-04T18:13:38.524Z,11.92
2022-10-04T18:16:17.748Z,11.85
2022-10-04T18:18:48.452Z,11.81
2022-10-04T18:21:27.727Z,11.77
2022-10-04T18:24:00.277Z,11.75
2022-10-04T18:26:33.044Z,11.74
2022-10-04T18:29:03.841Z,11.74
2022-10-04T18:31:39.657Z,11.71
2022-10-04T18:34:27.956Z,11.68
2022-10-04T18:37:07.072Z,11.67
2022-10-04T18:39:49.629Z,11.71
2022-10-04T18:42:27.256Z,11.71
2022-10-04T18:45:00.192Z,11.62
2022-10-04T18:47:37.075Z,11.46
2022-10-04T18:50:17.951Z,11.46
2022-10-04T18:53:04.294Z,11.53
2022-10-04T18:55:45.802Z,11.53
2022-10-04T18:58:45.235Z,11.49
2022-10-04T19:01:58.032Z,11.62
2022-10-04T19:04:45.300Z,11.65
2022-10-04T19:07:18.413Z,11.68
2022-10-04T19:10:02.754Z,11.70
2022-10-04T19:12:39.362Z,11.67
2022-10-04T19:15:23.656Z,11.70
2022-10-04T19:18:02.427Z,11.63
2022-10-04T19:20:40.655Z,11.67
2022-10-04T19:23:26.444Z,11.68
2022-10-04T19:26:30.656Z,11.63
2022-10-04T19:29:00.240Z,11.72
2022-10-04T19:31:35.566Z,11.78
2022-10-04T19:34:12.502Z,11.81
2022-10-04T19:36:51.418Z,11.75
2022-10-04T19:39:39.130Z,11.78
2022-10-04T19:42:15.274Z,11.81
2022-10-04T19:44:57.793Z,11.86
2022-10-04T19:47:41.376Z,11.86
2022-10-04T19:50:21.163Z,11.83
2022-10-04T19:52:54.520Z,11.82
2022-10-04T19:55:42.905Z,11.83
2022-10-04T19:58:39.161Z,11.84
2022-10-04T20:01:13.515Z,11.80
2022-10-04T20:03:43.353Z,11.79
2022-10-04T20:06:21.357Z,11.75
2022-10-04T20:08:56.774Z,11.73
2022-10-04T20:11:49.995Z,11.73
2022-10-04T20:14:48.172Z,11.70
2022-10-04T20:17:34.144Z,11.67
2022-10-04T20:20:04.222Z,11.65
2022-10-04T20:22:55.649Z,11.67
2022-10-04T20:26:02.269Z,11.68
2022-10-04T20:28:46.194Z,11.71
2022-10-04T20:31:52.704Z,11.73
2022-10-04T20:34:33.254Z,11.71
2022-10-04T20:37:03.402Z,11.70
2022-10-04T20:40:02.697Z,11.72
2022-10-04T20:42:39.926Z,11.73
2022-10-04T20:45:28.602Z,11.70
2022-10-04T20:47:59.670Z,11.72
2022-10-04T20:50:42.337Z,11.76
2022-10-04T20:53:20.034Z,11.75
2022-10-04T20:55:50.585Z,11.72
2022-10-04T20:58:32.918Z,11.71
2022-10-04T21:01:16.966Z,11.70
2022-10-04T21:03:46.470Z,11.67
2022-10-04T21:06:16.793Z,11.64
2022-10-04T21:08:45.957Z,11.61
2022-10-04T21:11:20.423Z,11.58
2022-10-04T21:13:55.583Z,11.60
2022-10-04T21:16:41.054Z,11.60
2022-10-04T21:19:50.354Z,11.62
2022-10-04T21:22:41.257Z,11.60
2022-10-04T21:25:40.601Z,11.56
2022-10-04T21:28:40.110Z,11.51
2022-10-04T21:31:09.265Z,11.48
2022-10-04T21:33:40.046Z,11.45
2022-10-04T21:36:09.449Z,11.42
2022-10-04T21:38:38.661Z,11.39
2022-10-04T21:41:08.439Z,11.37
2022-10-04T21:43:37.579Z,11.37
2022-10-04T21:46:06.814Z,11.35
2022-10-04T21:48:36.203Z,11.34
2022-10-04T21:51:06.792Z,11.32
2022-10-04T21:53:35.933Z,11.32
2022-10-04T21:56:07.613Z,11.34
2022-10-04T21:58:36.726Z,11.33
2022-10-04T22:01:06.181Z,11.34
2022-10-04T22:03:35.792Z,11.35
2022-10-04T22:06:06.520Z,11.35
2022-10-04T22:08:35.643Z,11.38
2022-10-04T22:11:05.079Z,11.37
2022-10-04T22:13:34.238Z,11.36
2022-10-04T22:16:03.664Z,11.35
2022-10-04T22:18:33.602Z,11.33
2022-10-04T22:21:03.404Z,11.31
2022-10-04T22:23:39.368Z,11.31
2022-10-04T22:26:13.260Z,11.30
2022-10-04T22:28:46.490Z,11.31
2022-10-04T22:31:17.672Z,11.34
2022-10-04T22:33:49.039Z,11.37
2022-10-04T22:36:20.882Z,11.43
2022-10-04T22:38:57.801Z,11.45
2022-10-04T22:41:31.203Z,11.46
2022-10-04T22:44:04.146Z,11.48
2022-10-04T22:46:38.460Z,11.51
2022-10-04T22:49:12.694Z,11.53
2022-10-04T22:51:44.354Z,11.56
2022-10-04T22:54:19.788Z,11.59
2022-10-04T22:56:49.710Z,11.61
2022-10-04T22:59:21.395Z,11.60
2022-10-04T23:01:50.842Z,11.62
2022-10-04T23:04:23.974Z,11.65
2022-10-04T23:06:54.370Z,11.65
2022-10-04T23:09:24.962Z,11.65
2022-10-04T23:11:54.287Z,11.64
2022-10-04T23:14:23.427Z,11.66
2022-10-04T23:16:52.580Z,11.65
2022-10-04T23:19:21.910Z,11.64
2022-10-04T23:21:52.261Z,11.64
2022-10-04T23:24:24.787Z,11.64
2022-10-04T23:26:57.266Z,11.66
2022-10-04T23:29:28.811Z,11.67
2022-10-04T23:31:59.027Z,11.67
2022-10-04T23:34:36.613Z,11.69
2022-10-04T23:37:14.728Z,11.69
2022-10-04T23:39:45.845Z,11.71
2022-10-04T23:42:20.311Z,11.67
2022-10-04T23:44:51.229Z,11.68
2022-10-04T23:47:22.746Z,11.69
2022-10-04T23:49:54.669Z,11.71
2022-10-04T23:52:27.341Z,11.73
2022-10-04T23:54:57.898Z,11.69
2022-10-04T23:57:28.866Z,11.65
2022-10-04T23:59:59.761Z,11.65
